Time;durP1;ratioP1;P1;durP2;ratioP2;P2;SDS_P1;SDS_P2;PMS_P1;PMS_P2;Temp;Humidity;BMP_temperature;BMP_pressure;BME280_temperature;BME280_humidity;BME280_pressure;Samples;Min_cycle;Max_cycle;Signal;HPM_P1;HPM_P2
2022/01/01 00:01:54;;;;;;;;;;;22.20;48.90;;;;;;5116962;28;19938;-50
2022/01/01 00:04:21;;;;;;;;;;;22.20;48.90;;;;;;5115995;27;19935;-49
2022/01/01 00:06:48;;;;;;;;;;;22.20;48.90;;;;;;5116855;28;19930;-57
2022/01/01 00:09:16;;;;;;;;;;;22.20;48.90;;;;;;5117094;28;19924;-56
2022/01/01 00:11:43;;;;;;;;;;;22.20;48.90;;;;;;5117069;28;20027;-57
2022/01/01 00:14:10;;;;;;;;;;;22.20;48.90;;;;;;5116706;28;19924;-57
2022/01/01 00:16:37;;;;;;;;;;;22.20;48.90;;;;;;5116667;28;19924;-55
2022/01/01 00:19:04;;;;;;;;;;;22.20;48.90;;;;;;5115709;28;19924;-57
2022/01/01 00:21:31;;;;;;;;;;;22.20;48.80;;;;;;5116561;28;19939;-52
2022/01/01 00:23:58;;;;;;;;;;;22.20;48.80;;;;;;5098303;28;19924;-54
2022/01/01 00:26:26;;;;;;;;;;;22.20;48.90;;;;;;5116777;28;19977;-50
2022/01/01 00:28:53;;;;;;;;;;;22.20;48.80;;;;;;5115645;28;19923;-51
2022/01/01 00:31:20;;;;;;;;;;;22.20;48.80;;;;;;5116305;28;19924;-53
2022/01/01 00:33:47;;;;;;;;;;;22.20;48.80;;;;;;5115295;27;19969;-56
2022/01/01 00:36:14;;;;;;;;;;;22.20;48.80;;;;;;5116236;28;19931;-48
2022/01/01 00:38:41;;;;;;;;;;;22.20;48.80;;;;;;5116206;28;19924;-58
2022/01/01 00:41:08;;;;;;;;;;;22.20;48.80;;;;;;5116183;28;19924;-53
2022/01/01 00:43:35;;;;;;;;;;;22.20;48.80;;;;;;5116141;28;19938;-56
2022/01/01 00:46:02;;;;;;;;;;;22.20;48.80;;;;;;5116064;28;19937;-54
2022/01/01 00:48:29;;;;;;;;;;;22.20;48.80;;;;;;5096658;28;19928;-55
2022/01/01 00:51:16;;;;;;;;;;;22.20;48.80;;;;;;5116480;28;20298;-52
2022/01/01 00:53:43;;;;;;;;;;;22.20;48.80;;;;;;5115751;28;20379;-56
2022/01/01 00:56:10;;;;;;;;;;;22.20;48.80;;;;;;5115885;28;19931;-57
2022/01/01 00:58:37;;;;;;;;;;;22.20;48.80;;;;;;5115843;28;19924;-53
2022/01/01 01:01:05;;;;;;;;;;;22.20;48.80;;;;;;5115741;28;19924;-53
2022/01/01 01:03:32;;;;;;;;;;;22.20;48.80;;;;;;5115008;27;20018;-53
2022/01/01 01:05:59;;;;;;;;;;;22.20;48.80;;;;;;5115582;28;19924;-59
2022/01/01 01:08:27;;;;;;;;;;;22.20;48.80;;;;;;5115611;28;19924;-56
2022/01/01 01:10:56;;;;;;;;;;;22.20;48.80;;;;;;5115492;28;19930;-58
2022/01/01 01:13:24;;;;;;;;;;;22.20;48.80;;;;;;5115519;28;19924;-52
2022/01/01 01:15:51;;;;;;;;;;;22.20;48.80;;;;;;5115544;28;19927;-57
2022/01/01 01:18:19;;;;;;;;;;;22.20;48.80;;;;;;5115589;28;19931;-49
2022/01/01 01:20:45;;;;;;;;;;;22.20;48.80;;;;;;5114825;28;19931;-54
2022/01/01 01:23:12;;;;;;;;;;;22.20;48.80;;;;;;5115213;28;20276;-53
2022/01/01 01:25:41;;;;;;;;;;;22.20;48.80;;;;;;5115326;28;19930;-46
2022/01/01 01:28:09;;;;;;;;;;;22.20;48.80;;;;;;5115266;28;19924;-51
2022/01/01 01:30:36;;;;;;;;;;;22.20;48.80;;;;;;5115150;28;19931;-47
2022/01/01 01:33:04;;;;;;;;;;;22.20;48.80;;;;;;5115494;28;19924;-48
2022/01/01 01:35:32;;;;;;;;;;;22.20;48.80;;;;;;5113851;28;19923;-47
2022/01/01 01:37:59;;;;;;;;;;;22.20;48.70;;;;;;5115394;28;19928;-49
2022/01/01 01:40:26;;;;;;;;;;;22.20;48.80;;;;;;5115328;28;19931;-52
2022/01/01 01:42:53;;;;;;;;;;;22.20;48.80;;;;;;5114998;28;19923;-54
2022/01/01 01:45:22;;;;;;;;;;;22.20;48.80;;;;;;5115286;28;19923;-49
2022/01/01 01:47:50;;;;;;;;;;;22.20;48.80;;;;;;5114783;28;19928;-54
2022/01/01 01:50:18;;;;;;;;;;;22.20;48.80;;;;;;5114003;28;19924;-47
2022/01/01 01:52:47;;;;;;;;;;;22.20;48.80;;;;;;5114951;28;20294;-52
2022/01/01 01:55:14;;;;;;;;;;;22.20;48.80;;;;;;5115050;28;19923;-48
2022/01/01 01:57:41;;;;;;;;;;;22.20;48.80;;;;;;5114735;28;20406;-50
2022/01/01 02:03:00;;;;;;;;;;;22.20;48.80;;;;;;5114722;28;20321;-50
2022/01/01 02:05:28;;;;;;;;;;;22.20;48.70;;;;;;5113940;28;20298;-52
2022/01/01 02:07:57;;;;;;;;;;;22.20;48.70;;;;;;5114546;28;19924;-50
2022/01/01 02:10:24;;;;;;;;;;;22.20;48.70;;;;;;5114452;28;19924;-52
2022/01/01 02:12:54;;;;;;;;;;;22.20;48.70;;;;;;5114484;28;19923;-56
2022/01/01 02:18:19;;;;;;;;;;;22.20;48.70;;;;;;5031822;28;19932;-52
2022/01/01 02:20:50;;;;;;;;;;;22.20;48.80;;;;;;5031156;28;19967;-50
2022/01/01 02:23:17;;;;;;;;;;;22.20;49.40;;;;;;5031509;28;20329;-55
2022/01/01 02:25:47;;;;;;;;;;;22.20;48.70;;;;;;5031794;28;19925;-51
2022/01/01 02:28:14;;;;;;;;;;;22.20;48.70;;;;;;5015451;28;19925;-49
2022/01/01 02:30:41;;;;;;;;;;;22.20;48.70;;;;;;5031629;28;19925;-55
2022/01/01 02:33:08;;;;;;;;;;;22.20;48.70;;;;;;5031715;28;19925;-57
2022/01/01 02:35:35;;;;;;;;;;;22.20;48.70;;;;;;5041951;28;19932;-48
2022/01/01 02:38:02;;;;;;;;;;;22.20;48.70;;;;;;5051553;28;19925;-49
2022/01/01 02:40:30;;;;;;;;;;;22.20;48.70;;;;;;5051560;28;19947;-57
2022/01/01 02:42:57;;;;;;;;;;;22.20;48.80;;;;;;5051695;28;19929;-58
2022/01/01 02:45:24;;;;;;;;;;;22.20;48.70;;;;;;5051519;28;20392;-50
2022/01/01 02:47:52;;;;;;;;;;;22.20;48.70;;;;;;5051300;28;19936;-48
2022/01/01 02:50:19;;;;;;;;;;;22.20;48.70;;;;;;5049904;28;19924;-52
2022/01/01 02:52:47;;;;;;;;;;;22.20;48.70;;;;;;5053256;28;19925;-48
2022/01/01 02:55:14;;;;;;;;;;;22.20;48.70;;;;;;5074474;28;20007;-56
2022/01/01 02:57:41;;;;;;;;;;;22.20;48.70;;;;;;5098167;28;20389;-56
2022/01/01 03:00:09;;;;;;;;;;;22.20;48.70;;;;;;5097839;28;19928;-55
2022/01/01 03:02:36;;;;;;;;;;;22.20;48.70;;;;;;5098052;28;19924;-48
2022/01/01 03:05:03;;;;;;;;;;;22.20;48.70;;;;;;5096447;28;19927;-52
2022/01/01 03:07:30;;;;;;;;;;;22.20;48.70;;;;;;5097680;28;19931;-52
2022/01/01 03:09:58;;;;;;;;;;;22.20;48.70;;;;;;5097896;28;19931;-55
2022/01/01 03:12:25;;;;;;;;;;;22.20;48.70;;;;;;5097574;28;19931;-52
2022/01/01 03:14:52;;;;;;;;;;;22.20;48.70;;;;;;5097862;28;19951;-57
2022/01/01 03:17:19;;;;;;;;;;;22.20;48.70;;;;;;5097486;28;19924;-52
2022/01/01 03:19:46;;;;;;;;;;;22.20;48.70;;;;;;5096214;28;20398;-54
2022/01/01 03:22:13;;;;;;;;;;;22.20;48.70;;;;;;5097392;28;19931;-58
2022/01/01 03:24:40;;;;;;;;;;;22.20;48.70;;;;;;5117672;28;20393;-54
2022/01/01 03:27:07;;;;;;;;;;;22.20;48.70;;;;;;5117669;28;19930;-55
2022/01/01 03:29:34;;;;;;;;;;;22.20;48.70;;;;;;5117611;28;19923;-56
2022/01/01 03:32:01;;;;;;;;;;;22.20;48.70;;;;;;5117512;28;20409;-53
2022/01/01 03:34:28;;;;;;;;;;;22.20;48.70;;;;;;5117502;28;19931;-51
2022/01/01 03:36:56;;;;;;;;;;;22.20;48.70;;;;;;5116655;27;19967;-52
2022/01/01 03:39:23;;;;;;;;;;;22.20;48.70;;;;;;5117727;28;19923;-52
2022/01/01 03:41:50;;;;;;;;;;;22.20;48.70;;;;;;5117686;28;19931;-49
2022/01/01 03:44:17;;;;;;;;;;;22.20;48.70;;;;;;5117626;28;19924;-51
2022/01/01 03:46:45;;;;;;;;;;;22.20;48.70;;;;;;5117298;28;19924;-49
2022/01/01 03:49:12;;;;;;;;;;;22.20;48.70;;;;;;5117395;28;20409;-51
2022/01/01 03:51:39;;;;;;;;;;;22.20;48.70;;;;;;5116217;28;20309;-56
2022/01/01 03:54:07;;;;;;;;;;;22.10;48.60;;;;;;5116948;28;19924;-55
2022/01/01 03:56:37;;;;;;;;;;;22.20;48.70;;;;;;5117421;28;19924;-53
2022/01/01 03:59:04;;;;;;;;;;;22.20;48.70;;;;;;5117646;28;19923;-53
2022/01/01 04:01:32;;;;;;;;;;;22.20;48.70;;;;;;5116974;28;19972;-58
2022/01/01 04:03:59;;;;;;;;;;;22.10;48.60;;;;;;5115716;28;19931;-54
2022/01/01 04:06:26;;;;;;;;;;;22.10;48.60;;;;;;5107673;27;19930;-57
2022/01/01 04:08:53;;;;;;;;;;;22.10;48.60;;;;;;5137728;27;19923;-56
2022/01/01 04:11:21;;;;;;;;;;;22.10;48.60;;;;;;5137586;27;19946;-55
2022/01/01 04:13:49;;;;;;;;;;;22.20;48.70;;;;;;5137290;27;19923;-50
2022/01/01 04:16:17;;;;;;;;;;;22.10;48.70;;;;;;5137234;27;19923;-56
2022/01/01 04:18:45;;;;;;;;;;;22.10;48.70;;;;;;5137094;27;19923;-52
2022/01/01 04:21:13;;;;;;;;;;;22.10;48.70;;;;;;5127673;27;19966;-56
2022/01/01 04:23:41;;;;;;;;;;;22.10;48.70;;;;;;5094797;28;20399;-54
2022/01/01 04:26:08;;;;;;;;;;;22.10;48.70;;;;;;5096142;28;19924;-58
2022/01/01 04:28:35;;;;;;;;;;;22.10;48.60;;;;;;5096398;28;19931;-51
2022/01/01 04:31:03;;;;;;;;;;;22.10;48.70;;;;;;5095986;28;19928;-49
2022/01/01 04:33:30;;;;;;;;;;;22.10;48.70;;;;;;5096013;28;20379;-50
2022/01/01 04:35:57;;;;;;;;;;;22.10;48.70;;;;;;5094801;28;20296;-50
2022/01/01 04:38:37;;;;;;;;;;;22.10;48.70;;;;;;5096240;28;19931;-58
2022/01/01 04:41:14;;;;;;;;;;;22.10;48.70;;;;;;5096516;28;19924;-58
2022/01/01 04:43:46;;;;;;;;;;;22.10;48.70;;;;;;5096173;28;19971;-49
2022/01/01 04:46:14;;;;;;;;;;;22.10;48.70;;;;;;5096034;28;19924;-57
2022/01/01 04:48:41;;;;;;;;;;;22.10;48.70;;;;;;5095727;28;19924;-49
2022/01/01 04:51:09;;;;;;;;;;;22.10;48.70;;;;;;5094604;28;19978;-51
2022/01/01 04:53:39;;;;;;;;;;;22.10;48.70;;;;;;5095934;28;19931;-47
2022/01/01 04:56:07;;;;;;;;;;;22.10;48.70;;;;;;5095840;28;20011;-54
2022/01/01 04:58:35;;;;;;;;;;;22.10;48.70;;;;;;5095537;28;19932;-52
2022/01/01 05:01:02;;;;;;;;;;;22.10;48.70;;;;;;5095498;28;20496;-48
2022/01/01 05:03:30;;;;;;;;;;;22.10;48.70;;;;;;5095761;28;20437;-50
2022/01/01 05:05:57;;;;;;;;;;;22.10;48.70;;;;;;5094086;28;19924;-47
2022/01/01 05:08:24;;;;;;;;;;;22.10;48.70;;;;;;5095346;28;19924;-50
2022/01/01 05:10:51;;;;;;;;;;;22.10;48.70;;;;;;5095222;28;19930;-47
2022/01/01 05:13:19;;;;;;;;;;;22.10;48.70;;;;;;5095593;28;20010;-50
2022/01/01 05:15:46;;;;;;;;;;;22.10;48.70;;;;;;5094906;28;19931;-49
2022/01/01 05:18:15;;;;;;;;;;;22.10;48.70;;;;;;5095054;28;19924;-49
2022/01/01 05:20:43;;;;;;;;;;;22.10;48.70;;;;;;5095076;28;19924;-55
2022/01/01 05:23:10;;;;;;;;;;;22.10;48.70;;;;;;5092407;28;19924;-54
2022/01/01 05:25:37;;;;;;;;;;;22.10;48.70;;;;;;5095045;28;20375;-50
2022/01/01 05:28:04;;;;;;;;;;;22.10;48.70;;;;;;5095302;28;20015;-53
2022/01/01 05:30:31;;;;;;;;;;;22.10;48.70;;;;;;5094849;28;19931;-50
2022/01/01 05:32:59;;;;;;;;;;;22.10;48.70;;;;;;5094849;28;19931;-53
2022/01/01 05:35:26;;;;;;;;;;;22.10;48.70;;;;;;5093876;28;20444;-54
2022/01/01 05:37:53;;;;;;;;;;;22.10;48.70;;;;;;5093504;28;19924;-53
2022/01/01 05:40:20;;;;;;;;;;;22.10;48.70;;;;;;5094758;28;19970;-49
2022/01/01 05:42:48;;;;;;;;;;;22.10;48.70;;;;;;5094957;28;19932;-56
2022/01/01 05:45:15;;;;;;;;;;;22.10;48.70;;;;;;5094655;28;19924;-57
2022/01/01 05:47:42;;;;;;;;;;;22.10;48.70;;;;;;5094481;28;19928;-56
2022/01/01 05:50:09;;;;;;;;;;;22.10;48.70;;;;;;5094813;28;19932;-53
2022/01/01 05:52:36;;;;;;;;;;;22.10;48.70;;;;;;5093179;28;19924;-57
2022/01/01 05:55:03;;;;;;;;;;;22.10;48.70;;;;;;5094448;28;19930;-49
2022/01/01 05:57:31;;;;;;;;;;;22.10;48.70;;;;;;5094442;28;19924;-56
2022/01/01 05:59:58;;;;;;;;;;;22.10;48.70;;;;;;5094386;28;20002;-45
2022/01/01 06:02:25;;;;;;;;;;;22.10;48.70;;;;;;5094881;28;19924;-58
2022/01/01 06:04:53;;;;;;;;;;;22.10;48.80;;;;;;5094555;28;19930;-55
2022/01/01 06:07:20;;;;;;;;;;;22.10;48.70;;;;;;5093213;28;19931;-53
2022/01/01 06:09:49;;;;;;;;;;;22.10;48.70;;;;;;5094506;28;19924;-57
2022/01/01 06:12:16;;;;;;;;;;;22.10;48.70;;;;;;5094123;28;19927;-50
2022/01/01 06:14:43;;;;;;;;;;;22.10;48.70;;;;;;5094169;28;19924;-54
2022/01/01 06:17:10;;;;;;;;;;;22.10;48.70;;;;;;5092849;28;19924;-57
2022/01/01 06:19:37;;;;;;;;;;;22.10;48.80;;;;;;5093088;28;20002;-50
2022/01/01 06:22:04;;;;;;;;;;;22.10;48.80;;;;;;5092680;28;19928;-50
2022/01/01 06:24:31;;;;;;;;;;;22.10;48.80;;;;;;5113686;28;19924;-53
2022/01/01 06:26:59;;;;;;;;;;;22.10;48.80;;;;;;5113962;28;19931;-53
2022/01/01 06:29:26;;;;;;;;;;;22.10;48.80;;;;;;5115142;28;19930;-52
2022/01/01 06:31:58;;;;;;;;;;;22.10;48.70;;;;;;5114459;28;19924;-47
2022/01/01 06:34:25;;;;;;;;;;;22.10;48.80;;;;;;5096494;28;19931;-57
2022/01/01 06:36:52;;;;;;;;;;;22.10;49.40;;;;;;5094908;28;19928;-57
2022/01/01 06:39:19;;;;;;;;;;;22.10;48.70;;;;;;5114168;28;19924;-56
2022/01/01 06:41:46;;;;;;;;;;;22.10;48.70;;;;;;5114467;28;19924;-56
2022/01/01 06:44:13;;;;;;;;;;;22.10;48.70;;;;;;5114106;28;20393;-58
2022/01/01 06:46:41;;;;;;;;;;;22.10;48.80;;;;;;5114092;28;19930;-57
2022/01/01 06:49:08;;;;;;;;;;;22.10;48.70;;;;;;5096553;28;19931;-54
2022/01/01 06:51:36;;;;;;;;;;;22.10;48.70;;;;;;5114010;28;19924;-55
2022/01/01 06:54:04;;;;;;;;;;;22.10;48.70;;;;;;5094608;28;19931;-57
2022/01/01 06:56:31;;;;;;;;;;;22.10;48.80;;;;;;5114016;28;19924;-57
2022/01/01 06:58:58;;;;;;;;;;;22.10;48.70;;;;;;5113987;28;19923;-57
2022/01/01 07:01:25;;;;;;;;;;;22.00;48.60;;;;;;5114235;28;19931;-53
2022/01/01 07:03:52;;;;;;;;;;;22.10;48.70;;;;;;5114274;28;20011;-53
2022/01/01 07:06:19;;;;;;;;;;;22.10;48.70;;;;;;5114222;28;19924;-56
2022/01/01 07:08:46;;;;;;;;;;;22.10;48.70;;;;;;5112628;28;19924;-53
2022/01/01 07:11:13;;;;;;;;;;;22.10;48.70;;;;;;5113798;28;19924;-59
2022/01/01 07:13:40;;;;;;;;;;;22.10;48.70;;;;;;5113851;28;19924;-58
2022/01/01 07:16:07;;;;;;;;;;;22.10;48.70;;;;;;5114388;28;19924;-56
2022/01/01 07:18:34;;;;;;;;;;;22.10;48.70;;;;;;5114041;28;19928;-53
2022/01/01 07:21:01;;;;;;;;;;;22.10;48.70;;;;;;5114097;28;20000;-57
2022/01/01 07:23:28;;;;;;;;;;;22.10;48.70;;;;;;5112140;28;19924;-58
2022/01/01 07:25:56;;;;;;;;;;;22.10;48.70;;;;;;5113771;28;19930;-53
2022/01/01 07:28:23;;;;;;;;;;;22.10;48.70;;;;;;5113718;28;19928;-55
2022/01/01 07:30:50;;;;;;;;;;;22.10;48.70;;;;;;5113636;28;19924;-50
2022/01/01 07:33:17;;;;;;;;;;;22.10;48.70;;;;;;5113680;28;19923;-56
2022/01/01 07:35:44;;;;;;;;;;;22.10;48.70;;;;;;5113628;28;19931;-58
2022/01/01 07:38:11;;;;;;;;;;;22.10;48.70;;;;;;5113535;28;19937;-52
2022/01/01 07:40:39;;;;;;;;;;;22.10;48.70;;;;;;5117422;28;19930;-49
2022/01/01 07:43:13;;;;;;;;;;;22.10;48.60;;;;;;5117391;28;19946;-57
2022/01/01 07:45:40;;;;;;;;;;;22.10;48.60;;;;;;5117361;28;19977;-53
2022/01/01 07:48:08;;;;;;;;;;;22.10;48.70;;;;;;5117173;28;19924;-52
2022/01/01 07:50:36;;;;;;;;;;;22.10;48.70;;;;;;5117810;28;19932;-53
2022/01/01 07:53:05;;;;;;;;;;;22.10;48.70;;;;;;5115927;28;19927;-49
2022/01/01 07:55:32;;;;;;;;;;;22.10;48.70;;;;;;5117445;28;19923;-52
2022/01/01 07:57:59;;;;;;;;;;;22.10;48.60;;;;;;5117099;28;19923;-57
2022/01/01 08:00:26;;;;;;;;;;;22.10;48.60;;;;;;5117350;28;19931;-55
2022/01/01 08:02:54;;;;;;;;;;;22.10;48.60;;;;;;5116940;28;19924;-56
2022/01/01 08:05:21;;;;;;;;;;;22.10;48.60;;;;;;5117232;28;19931;-58
2022/01/01 08:07:48;;;;;;;;;;;22.10;48.60;;;;;;5116314;27;19992;-56
2022/01/01 08:10:31;;;;;;;;;;;22.10;48.60;;;;;;5117148;28;19925;-58
2022/01/01 08:12:58;;;;;;;;;;;22.10;48.60;;;;;;5117275;28;19931;-59
2022/01/01 08:15:25;;;;;;;;;;;22.10;48.60;;;;;;5116693;28;19924;-57
2022/01/01 08:17:52;;;;;;;;;;;22.10;48.50;;;;;;5116835;28;20264;-58
2022/01/01 08:20:19;;;;;;;;;;;22.10;48.50;;;;;;5116648;28;19924;-56
2022/01/01 08:22:47;;;;;;;;;;;22.10;48.40;;;;;;5116226;28;19978;-54
2022/01/01 08:25:16;;;;;;;;;;;22.10;48.40;;;;;;5116020;27;19959;-50
2022/01/01 08:27:43;;;;;;;;;;;22.20;48.50;;;;;;5117023;28;19927;-55
2022/01/01 08:30:10;;;;;;;;;;;22.20;48.50;;;;;;5116731;28;20018;-50
2022/01/01 08:32:37;;;;;;;;;;;22.20;48.50;;;;;;5116288;28;19930;-52
2022/01/01 08:35:05;;;;;;;;;;;22.20;48.40;;;;;;5116393;28;19930;-51
2022/01/01 08:37:32;;;;;;;;;;;22.20;48.40;;;;;;5116617;28;19924;-51
2022/01/01 08:39:59;;;;;;;;;;;22.20;48.40;;;;;;5115268;27;19931;-46
2022/01/01 08:42:26;;;;;;;;;;;22.20;48.30;;;;;;5116244;28;19924;-48
2022/01/01 08:44:53;;;;;;;;;;;22.20;48.20;;;;;;5117053;28;19932;-54
2022/01/01 08:47:24;;;;;;;;;;;22.30;48.30;;;;;;5098263;28;19923;-56
2022/01/01 08:49:52;;;;;;;;;;;22.30;48.30;;;;;;5116352;28;19930;-52
2022/01/01 08:52:19;;;;;;;;;;;22.30;48.30;;;;;;5116141;28;19931;-55
2022/01/01 08:54:46;;;;;;;;;;;22.30;48.20;;;;;;5115242;27;19955;-48
2022/01/01 08:57:13;;;;;;;;;;;22.30;48.20;;;;;;5115934;28;19928;-47
2022/01/01 08:59:40;;;;;;;;;;;22.30;48.20;;;;;;5116204;28;19931;-46
2022/01/01 09:02:08;;;;;;;;;;;22.30;48.20;;;;;;5116169;28;19924;-47
2022/01/01 09:04:35;;;;;;;;;;;22.40;48.20;;;;;;5116327;28;19927;-55
2022/01/01 09:07:02;;;;;;;;;;;22.40;48.20;;;;;;5116095;28;19924;-48
2022/01/01 09:09:29;;;;;;;;;;;22.40;48.10;;;;;;5114558;27;19930;-49
2022/01/01 09:11:57;;;;;;;;;;;22.40;48.10;;;;;;5115559;28;19935;-48
2022/01/01 09:14:24;;;;;;;;;;;22.40;48.00;;;;;;5115628;28;20020;-49
2022/01/01 09:16:51;;;;;;;;;;;22.40;48.00;;;;;;5115886;28;20390;-55
2022/01/01 09:19:19;;;;;;;;;;;22.40;48.00;;;;;;5115427;28;19931;-46
2022/01/01 09:21:46;;;;;;;;;;;22.40;48.00;;;;;;5115456;28;19924;-52
2022/01/01 09:24:13;;;;;;;;;;;22.40;48.00;;;;;;5114055;28;19934;-49
2022/01/01 09:26:40;;;;;;;;;;;22.40;47.90;;;;;;5115645;28;19927;-51
2022/01/01 09:29:09;;;;;;;;;;;22.40;47.90;;;;;;5115310;28;19924;-51
2022/01/01 09:31:38;;;;;;;;;;;22.50;47.90;;;;;;5115176;28;20014;-55
2022/01/01 09:34:06;;;;;;;;;;;22.50;47.90;;;;;;5115524;28;20340;-57
2022/01/01 09:36:34;;;;;;;;;;;22.50;47.90;;;;;;5115442;28;19928;-54
2022/01/01 09:39:03;;;;;;;;;;;22.50;47.80;;;;;;5114169;27;20667;-56
2022/01/01 09:41:30;;;;;;;;;;;22.50;47.80;;;;;;5115075;28;19924;-57
2022/01/01 09:43:57;;;;;;;;;;;22.50;47.80;;;;;;5115018;28;19931;-47
2022/01/01 09:46:27;;;;;;;;;;;22.60;47.80;;;;;;5114973;28;19924;-54
2022/01/01 09:48:55;;;;;;;;;;;22.60;47.80;;;;;;5114826;28;19924;-56
2022/01/01 09:51:22;;;;;;;;;;;22.60;47.70;;;;;;5097196;28;19928;-56
2022/01/01 09:53:49;;;;;;;;;;;22.60;47.70;;;;;;5114384;28;19924;-53
2022/01/01 09:56:16;;;;;;;;;;;22.60;47.70;;;;;;5114279;28;19924;-57
2022/01/01 09:58:43;;;;;;;;;;;22.60;47.60;;;;;;5114716;28;19935;-55
2022/01/01 10:01:10;;;;;;;;;;;22.60;47.60;;;;;;5114219;28;19924;-53
2022/01/01 10:03:40;;;;;;;;;;;22.70;47.60;;;;;;5096456;28;20450;-54
2022/01/01 10:06:08;;;;;;;;;;;22.70;47.60;;;;;;5114635;28;19931;-54
2022/01/01 10:08:36;;;;;;;;;;;22.70;47.60;;;;;;5114885;28;19924;-55
2022/01/01 10:11:04;;;;;;;;;;;22.70;47.60;;;;;;5113311;28;19982;-54
2022/01/01 10:13:32;;;;;;;;;;;22.70;47.50;;;;;;5114470;28;19924;-51
2022/01/01 10:16:01;;;;;;;;;;;22.80;47.60;;;;;;5114776;28;19977;-53
2022/01/01 10:18:31;;;;;;;;;;;22.80;48.20;;;;;;5114655;28;19963;-58
2022/01/01 10:21:02;;;;;;;;;;;22.80;47.60;;;;;;5114713;28;19923;-52
2022/01/01 10:23:31;;;;;;;;;;;22.80;47.50;;;;;;5114183;28;19923;-54
2022/01/01 10:29:17;;;;;;;;;;;22.80;47.50;;;;;;5114352;28;19976;-55
2022/01/01 10:31:59;;;;;;;;;;;22.80;47.40;;;;;;5097310;28;20386;-55
2022/01/01 10:34:31;;;;;;;;;;;22.80;47.40;;;;;;5114582;28;20294;-49
2022/01/01 10:36:58;;;;;;;;;;;22.80;47.40;;;;;;5114605;28;20280;-56
2022/01/01 10:39:26;;;;;;;;;;;22.80;47.40;;;;;;5113350;28;19924;-56
2022/01/01 10:41:55;;;;;;;;;;;22.80;47.50;;;;;;5114184;28;19935;-51
2022/01/01 10:44:26;;;;;;;;;;;22.80;47.40;;;;;;5114182;28;19923;-46
2022/01/01 10:46:55;;;;;;;;;;;22.80;47.50;;;;;;5096762;28;19928;-47
2022/01/01 10:49:36;;;;;;;;;;;22.80;47.50;;;;;;5114093;28;19923;-52
2022/01/01 10:52:12;;;;;;;;;;;22.80;47.50;;;;;;5113904;28;19938;-48
2022/01/01 10:54:46;;;;;;;;;;;22.80;47.50;;;;;;5113623;28;19930;-47
2022/01/01 10:57:13;;;;;;;;;;;22.80;47.50;;;;;;5114655;28;19935;-50
2022/01/01 10:59:40;;;;;;;;;;;22.80;47.50;;;;;;5114032;28;19944;-49
2022/01/01 11:02:07;;;;;;;;;;;22.90;47.50;;;;;;5114812;28;19941;-50
2022/01/01 11:04:35;;;;;;;;;;;22.90;47.50;;;;;;5113975;28;19930;-57
2022/01/01 11:07:03;;;;;;;;;;;22.90;47.50;;;;;;5114262;28;19923;-57
2022/01/01 11:09:31;;;;;;;;;;;22.90;47.50;;;;;;5114166;28;19930;-52
2022/01/01 11:12:02;;;;;;;;;;;22.90;47.50;;;;;;5112554;28;19930;-50
2022/01/01 11:14:31;;;;;;;;;;;22.90;47.50;;;;;;5117138;28;19923;-56
2022/01/01 11:16:58;;;;;;;;;;;22.90;47.50;;;;;;5118054;28;19924;-54
2022/01/01 11:19:26;;;;;;;;;;;22.90;47.50;;;;;;5117872;28;19973;-53
2022/01/01 11:21:54;;;;;;;;;;;22.90;47.50;;;;;;5117937;28;19924;-57
2022/01/01 11:24:22;;;;;;;;;;;22.90;47.50;;;;;;5117642;28;19924;-52
2022/01/01 11:26:51;;;;;;;;;;;22.90;47.50;;;;;;5116823;28;20315;-51
2022/01/01 11:29:18;;;;;;;;;;;22.90;47.50;;;;;;5099976;28;20291;-51
2022/01/01 11:31:46;;;;;;;;;;;22.90;47.60;;;;;;5117622;28;19924;-51
2022/01/01 11:34:14;;;;;;;;;;;22.90;47.60;;;;;;5117766;28;19927;-52
2022/01/01 11:36:41;;;;;;;;;;;22.90;47.60;;;;;;5117510;28;19924;-51
2022/01/01 11:39:12;;;;;;;;;;;22.90;47.60;;;;;;5117499;28;19976;-57
2022/01/01 11:41:40;;;;;;;;;;;22.90;47.60;;;;;;5098233;28;19924;-53
2022/01/01 11:44:26;;;;;;;;;;;22.90;47.60;;;;;;5099942;28;19931;-52
2022/01/01 11:46:58;;;;;;;;;;;22.90;47.70;;;;;;5117213;28;20466;-50
2022/01/01 11:49:27;;;;;;;;;;;22.90;47.70;;;;;;5117806;28;19923;-51
2022/01/01 11:52:34;;;;;;;;;;;22.90;47.70;;;;;;5117042;28;19928;-57
2022/01/01 11:55:03;;;;;;;;;;;22.90;47.70;;;;;;5117564;28;20343;-54
2022/01/01 11:57:31;;;;;;;;;;;23.00;47.80;;;;;;5116773;27;19923;-54
2022/01/01 12:00:07;;;;;;;;;;;22.90;47.70;;;;;;5117051;28;20022;-55
2022/01/01 12:02:35;;;;;;;;;;;23.00;47.80;;;;;;5117030;28;20428;-55
2022/01/01 12:05:09;;;;;;;;;;;23.00;47.80;;;;;;5116997;28;19977;-56
2022/01/01 12:07:46;;;;;;;;;;;23.00;47.80;;;;;;5116867;28;20413;-52
2022/01/01 12:10:15;;;;;;;;;;;23.00;47.80;;;;;;5116813;28;19938;-50
2022/01/01 12:12:56;;;;;;;;;;;23.00;47.80;;;;;;5116634;28;19928;-51
2022/01/01 12:15:36;;;;;;;;;;;23.00;47.80;;;;;;5117105;28;19931;-48
2022/01/01 12:18:04;;;;;;;;;;;23.00;47.80;;;;;;5116987;28;19955;-50
2022/01/01 12:20:36;;;;;;;;;;;23.00;47.80;;;;;;5117286;28;19972;-47
2022/01/01 12:23:08;;;;;;;;;;;23.00;47.80;;;;;;5116328;28;19928;-50
2022/01/01 12:25:36;;;;;;;;;;;23.00;47.80;;;;;;5114524;27;19969;-49
2022/01/01 12:28:06;;;;;;;;;;;23.00;47.80;;;;;;5116549;28;19928;-52
2022/01/01 12:30:41;;;;;;;;;;;23.00;47.80;;;;;;5116835;28;19931;-47
2022/01/01 12:33:09;;;;;;;;;;;23.00;47.80;;;;;;5116698;28;19924;-49
2022/01/01 12:35:39;;;;;;;;;;;23.00;47.80;;;;;;5116387;28;19930;-47
2022/01/01 12:38:07;;;;;;;;;;;23.00;47.80;;;;;;5098365;28;19931;-47
2022/01/01 12:40:35;;;;;;;;;;;23.00;47.80;;;;;;5115914;27;19928;-55
2022/01/01 12:43:11;;;;;;;;;;;23.00;47.80;;;;;;5116336;28;19956;-57
2022/01/01 12:45:42;;;;;;;;;;;23.10;47.90;;;;;;5116220;28;19924;-57
2022/01/01 12:48:09;;;;;;;;;;;23.10;47.90;;;;;;5116110;28;19970;-55
2022/01/01 12:50:36;;;;;;;;;;;23.10;47.90;;;;;;5117234;28;19927;-52
2022/01/01 12:53:03;;;;;;;;;;;23.10;47.90;;;;;;5097944;28;19935;-53
2022/01/01 12:55:30;;;;;;;;;;;23.10;47.80;;;;;;5116034;28;19931;-49
2022/01/01 12:58:08;;;;;;;;;;;23.10;47.80;;;;;;5115040;28;19924;-58
2022/01/01 13:00:38;;;;;;;;;;;23.10;47.80;;;;;;5116206;28;20363;-48
2022/01/01 13:03:06;;;;;;;;;;;23.10;47.80;;;;;;5115879;28;20018;-55
2022/01/01 13:05:34;;;;;;;;;;;23.10;47.80;;;;;;5116119;28;19950;-52
2022/01/01 13:08:04;;;;;;;;;;;23.10;47.80;;;;;;5115777;28;19924;-57
2022/01/01 13:10:33;;;;;;;;;;;23.10;47.80;;;;;;5115714;28;19924;-55
2022/01/01 13:13:04;;;;;;;;;;;23.10;47.80;;;;;;5115146;28;19923;-57
2022/01/01 13:15:35;;;;;;;;;;;23.10;47.80;;;;;;5115984;28;19924;-55
2022/01/01 13:18:02;;;;;;;;;;;23.20;47.90;;;;;;5097447;28;19930;-57
2022/01/01 13:20:31;;;;;;;;;;;23.20;47.90;;;;;;5115546;28;19924;-56
2022/01/01 13:23:05;;;;;;;;;;;23.20;47.80;;;;;;5093797;28;19924;-58
2022/01/01 13:25:32;;;;;;;;;;;23.20;47.90;;;;;;5095397;28;20291;-54
2022/01/01 13:27:59;;;;;;;;;;;23.20;47.80;;;;;;5093921;28;19931;-57
2022/01/01 13:30:26;;;;;;;;;;;23.20;47.90;;;;;;5095266;28;20374;-59
2022/01/01 13:32:54;;;;;;;;;;;23.20;47.90;;;;;;5095096;28;19928;-58
2022/01/01 13:35:29;;;;;;;;;;;23.20;47.90;;;;;;5094888;28;20428;-52
2022/01/01 13:37:57;;;;;;;;;;;23.20;47.80;;;;;;5095058;28;19924;-59
2022/01/01 13:40:24;;;;;;;;;;;23.20;47.80;;;;;;5094796;28;19935;-53
2022/01/01 13:42:51;;;;;;;;;;;23.20;47.80;;;;;;5093537;28;19969;-50
2022/01/01 13:45:22;;;;;;;;;;;23.20;47.90;;;;;;5094685;28;19932;-54
2022/01/01 13:47:49;;;;;;;;;;;23.20;48.50;;;;;;5094570;28;19924;-57
2022/01/01 13:50:18;;;;;;;;;;;23.20;47.90;;;;;;5094921;28;19977;-55
2022/01/01 13:52:52;;;;;;;;;;;23.20;47.90;;;;;;5094313;28;19934;-57
2022/01/01 13:55:26;;;;;;;;;;;23.20;47.90;;;;;;5094534;28;19924;-52
2022/01/01 13:57:55;;;;;;;;;;;23.20;47.90;;;;;;5093207;28;19924;-51
2022/01/01 14:00:25;;;;;;;;;;;23.20;47.90;;;;;;5094764;28;19928;-55
2022/01/01 14:02:54;;;;;;;;;;;23.20;47.90;;;;;;5094693;28;19924;-52
2022/01/01 14:05:23;;;;;;;;;;;23.20;48.00;;;;;;5094344;28;20459;-57
2022/01/01 14:08:08;;;;;;;;;;;23.20;47.90;;;;;;5094305;28;19924;-52
2022/01/01 14:10:35;;;;;;;;;;;23.20;48.00;;;;;;5094540;28;19934;-53
2022/01/01 14:13:02;;;;;;;;;;;23.20;47.90;;;;;;5092943;28;20441;-56
2022/01/01 14:15:29;;;;;;;;;;;23.20;48.00;;;;;;5094488;28;19931;-48
2022/01/01 14:18:07;;;;;;;;;;;23.20;48.00;;;;;;5094145;28;19928;-52
2022/01/01 14:20:44;;;;;;;;;;;23.20;48.00;;;;;;5094224;28;19931;-52
2022/01/01 14:23:24;;;;;;;;;;;23.20;48.10;;;;;;5102676;28;19930;-54
2022/01/01 14:26:18;;;;;;;;;;;23.20;48.10;;;;;;5114612;28;19924;-54
2022/01/01 14:28:48;;;;;;;;;;;23.20;48.10;;;;;;5109600;28;21339;-50
2022/01/01 14:31:16;;;;;;;;;;;23.20;48.10;;;;;;5114338;28;19928;-55
2022/01/01 14:33:43;;;;;;;;;;;23.20;48.10;;;;;;5114201;28;20375;-56